Time;durP1;ratioP1;P1;durP2;ratioP2;P2;SDS_P1;SDS_P2;PMS_P1;PMS_P2;Temp;Humidity;BMP_temperature;BMP_pressure;BME280_temperature;BME280_humidity;BME280_pressure;Samples;Min_cycle;Max_cycle;Signal;HPM_P1;HPM_P2
2022/03/02 00:00:44;;;;;;;1.10;1.00;;;1.70;99.90;;;;;;4984535;28;20704;-80
2022/03/02 00:03:10;;;;;;;1.60;1.50;;;1.50;99.90;;;;;;4991028;28;20636;-79
2022/03/02 00:05:36;;;;;;;1.00;0.90;;;1.50;99.90;;;;;;4987721;28;20452;-80
2022/03/02 00:08:03;;;;;;;6.00;2.00;;;1.60;99.90;;;;;;4990017;28;20436;-80
2022/03/02 00:10:29;;;;;;;1.43;1.33;;;1.50;99.90;;;;;;4974358;28;20452;-80
2022/03/02 00:12:54;;;;;;;1.73;1.63;;;1.40;99.90;;;;;;4991876;28;21011;-80
2022/03/02 00:15:20;;;;;;;2.47;2.37;;;1.40;99.90;;;;;;4989239;28;20514;-80
2022/03/02 00:17:45;;;;;;;1.57;1.47;;;1.50;99.90;;;;;;4975965;28;20197;-80
2022/03/02 00:20:12;;;;;;;1.60;1.50;;;1.50;99.90;;;;;;4969139;28;20220;-80
2022/03/02 00:22:39;;;;;;;1.17;1.07;;;1.70;99.90;;;;;;4988636;28;20185;-80
2022/03/02 00:25:05;;;;;;;1.73;1.63;;;1.70;99.90;;;;;;4981491;28;22157;-80
2022/03/02 00:27:31;;;;;;;2.80;2.17;;;1.60;99.90;;;;;;4992852;28;20432;-80
2022/03/02 00:29:57;;;;;;;2.87;2.40;;;1.50;99.90;;;;;;4991168;28;20999;-80
2022/03/02 00:32:22;;;;;;;1.10;1.00;;;1.40;99.90;;;;;;4987235;28;20259;-79
2022/03/02 00:34:47;;;;;;;2.13;2.03;;;1.40;99.90;;;;;;4985017;28;20200;-79
2022/03/02 00:37:14;;;;;;;5.87;2.87;;;1.50;99.90;;;;;;4986713;28;20196;-80
2022/03/02 00:39:41;;;;;;;2.27;1.60;;;1.60;99.90;;;;;;4989729;28;20192;-80
2022/03/02 00:42:06;;;;;;;1.97;1.73;;;1.70;99.90;;;;;;4991544;28;20451;-80
2022/03/02 00:44:33;;;;;;;1.53;1.43;;;1.70;99.90;;;;;;4990242;28;20455;-80
2022/03/02 00:47:00;;;;;;;1.10;1.00;;;1.80;99.90;;;;;;4988283;28;20185;-80
2022/03/02 00:49:27;;;;;;;1.53;1.43;;;1.80;99.90;;;;;;4991326;28;20519;-80
2022/03/02 00:51:55;;;;;;;2.23;2.13;;;1.80;99.90;;;;;;4990058;28;20448;-79
2022/03/02 00:54:20;;;;;;;1.20;1.10;;;1.80;99.90;;;;;;4991077;28;20443;-80
2022/03/02 00:56:46;;;;;;;1.73;1.63;;;1.90;99.90;;;;;;4988076;28;21034;-80
2022/03/02 00:59:11;;;;;;;1.40;1.30;;;1.90;99.90;;;;;;4989519;28;20200;-80
2022/03/02 01:01:37;;;;;;;2.60;1.53;;;1.80;99.90;;;;;;4982259;28;20819;-80
2022/03/02 01:04:03;;;;;;;1.70;1.60;;;1.70;99.90;;;;;;4985104;28;20224;-80
2022/03/02 01:06:28;;;;;;;1.33;1.23;;;1.60;99.90;;;;;;4989571;28;20181;-80
2022/03/02 01:08:54;;;;;;;2.33;2.23;;;1.40;99.90;;;;;;4987973;28;21292;-80
2022/03/02 01:11:19;;;;;;;1.50;1.40;;;1.40;99.90;;;;;;4990263;28;20188;-80
2022/03/02 01:13:46;;;;;;;1.20;1.10;;;1.40;99.90;;;;;;4989920;28;20696;-80
2022/03/02 01:16:14;;;;;;;1.03;0.93;;;1.40;99.90;;;;;;4990055;28;20209;-80
2022/03/02 01:18:39;;;;;;;3.70;2.10;;;1.40;99.90;;;;;;4987713;28;20542;-80
2022/03/02 01:21:05;;;;;;;2.60;2.40;;;1.30;99.90;;;;;;4985321;28;20839;-80
2022/03/02 01:23:32;;;;;;;1.00;0.90;;;1.40;99.90;;;;;;4990841;28;20181;-80
2022/03/02 01:25:58;;;;;;;1.20;1.10;;;1.40;99.90;;;;;;4991571;28;20444;-80
2022/03/02 01:28:23;;;;;;;1.00;0.90;;;1.40;99.90;;;;;;4980863;28;20511;-80
2022/03/02 01:30:49;;;;;;;1.47;1.37;;;1.40;99.90;;;;;;4988782;28;20209;-80
2022/03/02 01:33:15;;;;;;;1.80;1.70;;;1.50;99.90;;;;;;4980663;28;20271;-79
2022/03/02 01:35:40;;;;;;;2.20;2.10;;;1.50;99.90;;;;;;4989673;28;20195;-80
2022/03/02 01:38:06;;;;;;;1.60;1.50;;;1.40;99.90;;;;;;4985545;28;20200;-80
2022/03/02 01:40:31;;;;;;;2.20;1.80;;;1.40;99.90;;;;;;4990431;28;20185;-80
2022/03/02 01:42:57;;;;;;;1.87;1.77;;;1.50;99.90;;;;;;4992291;28;20185;-80
2022/03/02 01:45:23;;;;;;;1.37;1.27;;;1.40;99.90;;;;;;4987461;28;20193;-80
2022/03/02 01:47:48;;;;;;;1.00;0.90;;;1.40;99.90;;;;;;4985176;28;20231;-80
2022/03/02 01:50:15;;;;;;;1.37;1.27;;;1.30;99.90;;;;;;4990428;28;20279;-80
2022/03/02 01:52:42;;;;;;;2.80;1.20;;;1.20;99.90;;;;;;4989356;28;20605;-80
2022/03/02 01:55:10;;;;;;;1.10;1.00;;;1.20;99.90;;;;;;4989339;28;20454;-80
2022/03/02 01:57:36;;;;;;;1.00;0.90;;;1.20;99.90;;;;;;4988917;28;20496;-80
2022/03/02 02:00:07;;;;;;;1.87;1.50;;;1.20;99.90;;;;;;4988303;28;20483;-80
2022/03/02 02:02:32;;;;;;;1.50;1.40;;;1.30;99.90;;;;;;4987195;28;21034;-80
2022/03/02 02:04:58;;;;;;;3.20;2.93;;;1.30;99.90;;;;;;4980675;28;20440;-80
2022/03/02 02:07:25;;;;;;;1.57;1.47;;;1.30;99.90;;;;;;4984654;28;20193;-80
2022/03/02 02:09:52;;;;;;;1.00;0.90;;;1.30;99.90;;;;;;4985094;28;20256;-80
2022/03/02 02:12:18;;;;;;;1.00;0.90;;;1.30;99.90;;;;;;4989460;28;20444;-80
2022/03/02 02:14:43;;;;;;;1.57;1.47;;;1.20;99.90;;;;;;4987949;28;20522;-80
2022/03/02 02:17:09;;;;;;;1.30;1.20;;;1.20;99.90;;;;;;4990251;28;20193;-80
2022/03/02 02:19:35;;;;;;;1.77;1.67;;;1.10;99.90;;;;;;4986514;28;20185;-80
2022/03/02 02:22:01;;;;;;;1.00;0.90;;;1.00;99.90;;;;;;4989177;28;20307;-80
2022/03/02 02:24:26;;;;;;;1.77;1.67;;;1.10;99.90;;;;;;4986586;28;20535;-80
2022/03/02 02:26:52;;;;;;;1.47;1.20;;;1.10;99.90;;;;;;4970265;28;20181;-80
2022/03/02 02:29:20;;;;;;;1.30;1.20;;;0.90;99.90;;;;;;4980849;28;20227;-80
2022/03/02 02:31:45;;;;;;;3.90;3.60;;;0.90;99.90;;;;;;4972985;28;20192;-80
2022/03/02 02:34:11;;;;;;;1.00;0.90;;;0.80;99.90;;;;;;4988963;28;20451;-80
2022/03/02 02:36:38;;;;;;;3.20;2.93;;;0.80;99.90;;;;;;4971946;28;20203;-80
2022/03/02 02:39:04;;;;;;;2.90;1.47;;;0.90;99.90;;;;;;4989371;28;20187;-80
2022/03/02 02:41:30;;;;;;;1.00;0.90;;;0.70;99.90;;;;;;4985024;28;21249;-80
2022/03/02 02:43:55;;;;;;;1.00;0.90;;;0.70;99.90;;;;;;4969840;28;20452;-80
2022/03/02 02:46:21;;;;;;;1.00;0.90;;;0.70;99.90;;;;;;4987695;28;20195;-80
2022/03/02 02:48:46;;;;;;;1.20;1.10;;;0.70;99.90;;;;;;4988321;28;20630;-80
2022/03/02 02:51:12;;;;;;;1.00;0.90;;;0.80;99.90;;;;;;4988284;28;20552;-80
2022/03/02 02:53:37;;;;;;;1.20;1.10;;;0.90;99.90;;;;;;4972924;28;20185;-80
2022/03/02 02:56:03;;;;;;;1.90;1.80;;;0.90;99.90;;;;;;4987191;28;20653;-80
2022/03/02 02:58:29;;;;;;;2.47;2.27;;;0.90;99.90;;;;;;4981043;28;20192;-80
2022/03/02 03:00:54;;;;;;;1.20;1.10;;;0.90;99.90;;;;;;4986441;28;20185;-80
2022/03/02 03:03:20;;;;;;;1.20;1.10;;;0.70;99.90;;;;;;4987457;28;20229;-80
2022/03/02 03:05:46;;;;;;;1.63;1.47;;;0.60;99.90;;;;;;4988332;28;20192;-80
2022/03/02 03:08:13;;;;;;;1.77;1.67;;;0.70;99.90;;;;;;4985869;28;20199;-80
2022/03/02 03:10:41;;;;;;;1.10;1.00;;;0.80;99.90;;;;;;4988715;28;20185;-80
2022/03/02 03:13:08;;;;;;;2.10;2.00;;;0.70;99.90;;;;;;4984817;28;20526;-80
2022/03/02 03:15:34;;;;;;;1.30;1.20;;;0.70;99.90;;;;;;4984699;28;20448;-80
2022/03/02 03:18:01;;;;;;;2.40;2.20;;;0.70;99.90;;;;;;4967629;28;20440;-80
2022/03/02 03:20:27;;;;;;;1.20;1.10;;;0.70;99.90;;;;;;4982539;28;20463;-80
2022/03/02 03:22:55;;;;;;;1.67;1.57;;;0.60;99.90;;;;;;4992684;28;20444;-79
2022/03/02 03:25:21;;;;;;;1.57;1.47;;;0.50;99.90;;;;;;4990254;28;20455;-80
2022/03/02 03:27:47;;;;;;;1.30;1.20;;;0.50;99.90;;;;;;4973669;28;20502;-80
2022/03/02 03:30:15;;;;;;;3.83;1.73;;;0.60;99.90;;;;;;4989054;28;20293;-80
2022/03/02 03:32:41;;;;;;;1.60;1.50;;;0.60;99.90;;;;;;4991330;28;20987;-80
2022/03/02 03:35:08;;;;;;;3.33;3.07;;;0.50;99.90;;;;;;4993635;28;20451;-80
2022/03/02 03:37:34;;;;;;;1.83;1.73;;;0.50;99.90;;;;;;4986597;28;20653;-80
2022/03/02 03:40:00;;;;;;;3.63;3.43;;;0.50;99.90;;;;;;4990858;28;20518;-79
2022/03/02 03:42:25;;;;;;;1.77;1.67;;;0.60;99.90;;;;;;4984512;28;20452;-80
2022/03/02 03:44:51;;;;;;;1.20;1.10;;;0.70;99.90;;;;;;4984768;28;20197;-80
2022/03/02 03:47:17;;;;;;;1.83;1.73;;;0.60;99.90;;;;;;4989095;28;20251;-80
2022/03/02 03:49:43;;;;;;;1.20;1.10;;;0.50;99.90;;;;;;4976726;28;20221;-80
2022/03/02 03:52:09;;;;;;;1.50;1.40;;;0.40;99.90;;;;;;4991255;28;20534;-80
2022/03/02 03:54:35;;;;;;;1.43;1.27;;;0.50;99.90;;;;;;4993218;28;20253;-80
2022/03/02 03:57:00;;;;;;;3.07;1.43;;;0.70;99.90;;;;;;4991532;28;20212;-80
2022/03/02 03:59:26;;;;;;;1.20;1.10;;;0.60;99.90;;;;;;4990765;28;22154;-80
2022/03/02 04:01:51;;;;;;;2.80;2.10;;;0.80;99.90;;;;;;4987817;28;21674;-80
2022/03/02 04:04:17;;;;;;;1.20;1.10;;;0.60;99.90;;;;;;4992371;28;20193;-80
2022/03/02 04:06:43;;;;;;;1.93;1.63;;;0.50;99.90;;;;;;4989607;28;20201;-80
2022/03/02 04:09:08;;;;;;;1.63;1.53;;;0.40;99.90;;;;;;4975386;28;20275;-80
2022/03/02 04:11:34;;;;;;;1.03;0.93;;;0.30;99.90;;;;;;4988975;28;20201;-80
2022/03/02 04:13:59;;;;;;;1.10;1.00;;;0.10;99.90;;;;;;4971555;28;20633;-80
2022/03/02 04:16:25;;;;;;;1.10;1.00;;;0.10;99.90;;;;;;4969082;28;20194;-80
2022/03/02 04:18:51;;;;;;;2.27;2.17;;;0.20;99.90;;;;;;4991838;28;20205;-80
2022/03/02 04:21:16;;;;;;;1.40;1.30;;;0.20;99.90;;;;;;4991493;28;20242;-80
2022/03/02 04:23:42;;;;;;;1.00;0.90;;;0.10;99.90;;;;;;4993921;28;20463;-80
2022/03/02 04:26:07;;;;;;;2.33;2.23;;;0.20;99.90;;;;;;4990963;28;20676;-80
2022/03/02 04:28:33;;;;;;;1.10;1.00;;;0.30;99.90;;;;;;4986067;28;20215;-80
2022/03/02 04:30:59;;;;;;;1.27;1.17;;;0.30;99.90;;;;;;4989205;28;20251;-80
2022/03/02 04:33:24;;;;;;;1.30;1.20;;;0.40;99.90;;;;;;4977710;28;20339;-80
2022/03/02 04:35:50;;;;;;;1.00;0.90;;;0.20;99.90;;;;;;4992218;28;20209;-79
2022/03/02 04:38:15;;;;;;;2.23;2.13;;;0.20;99.90;;;;;;4992441;28;20192;-80
2022/03/02 04:40:41;;;;;;;1.40;1.30;;;0.10;99.90;;;;;;4981058;28;20193;-80
2022/03/02 04:43:07;;;;;;;3.10;2.23;;;0.00;99.90;;;;;;4985300;28;20219;-80
2022/03/02 04:45:32;;;;;;;1.20;1.10;;;0.00;99.90;;;;;;4987989;28;20193;-80
2022/03/02 04:47:58;;;;;;;2.07;1.97;;;-0.10;99.90;;;;;;4988752;28;20584;-80
2022/03/02 04:50:25;;;;;;;1.40;1.30;;;-0.10;99.90;;;;;;4987695;28;20229;-80
2022/03/02 04:52:52;;;;;;;1.63;1.53;;;-0.10;99.90;;;;;;4981917;28;20561;-80
2022/03/02 04:55:19;;;;;;;1.20;1.10;;;-0.10;99.90;;;;;;4990822;28;20452;-80
2022/03/02 04:57:59;;;;;;;1.60;1.50;;;-0.20;99.90;;;;;;4991214;28;20440;-80
2022/03/02 05:00:36;;;;;;;1.93;1.83;;;-0.30;99.90;;;;;;4990618;28;20444;-80
2022/03/02 05:03:04;;;;;;;1.10;1.00;;;-0.20;99.90;;;;;;4988938;28;20514;-81
2022/03/02 05:05:34;;;;;;;1.60;1.50;;;-0.20;99.90;;;;;;4973886;28;20459;-80
2022/03/02 05:08:00;;;;;;;1.97;1.87;;;-0.20;99.90;;;;;;4988084;28;20441;-80
2022/03/02 05:10:26;;;;;;;1.30;1.20;;;-0.20;99.90;;;;;;4991824;28;20494;-80
2022/03/02 05:12:52;;;;;;;3.33;1.57;;;-0.30;99.90;;;;;;4989809;28;20193;-80
2022/03/02 05:15:21;;;;;;;1.23;1.13;;;-0.30;99.90;;;;;;4990658;28;20448;-80
2022/03/02 05:18:09;;;;;;;3.03;2.10;;;-0.30;99.90;;;;;;4985628;28;20514;-80
2022/03/02 05:21:09;;;;;;;1.73;1.63;;;-0.30;99.90;;;;;;4985850;28;20570;-80
2022/03/02 05:24:04;;;;;;;6.60;1.83;;;-0.30;99.90;;;;;;4964739;28;20472;-80
2022/03/02 05:26:30;;;;;;;1.50;1.40;;;-0.30;99.90;;;;;;4971683;28;20438;-80
2022/03/02 05:28:56;;;;;;;3.27;2.70;;;-0.30;99.90;;;;;;4989285;28;20475;-80
2022/03/02 05:31:24;;;;;;;1.43;1.33;;;-0.30;99.90;;;;;;4985606;28;20185;-80
2022/03/02 05:33:51;;;;;;;1.10;1.00;;;-0.40;99.90;;;;;;4990553;28;20193;-80
2022/03/02 05:36:17;;;;;;;1.10;1.00;;;-0.40;99.90;;;;;;4987445;28;20451;-81
2022/03/02 05:38:43;;;;;;;1.30;1.20;;;-0.40;99.90;;;;;;4986675;28;20453;-80
2022/03/02 05:41:08;;;;;;;1.20;1.10;;;-0.40;99.90;;;;;;4987697;28;20428;-80
2022/03/02 05:43:34;;;;;;;2.63;2.43;;;-0.40;99.90;;;;;;4985189;28;20181;-80
2022/03/02 05:46:06;;;;;;;1.43;1.33;;;-0.40;99.90;;;;;;4990282;28;20193;-80
2022/03/02 05:48:31;;;;;;;1.73;1.63;;;-0.40;99.90;;;;;;4972720;28;20292;-80
2022/03/02 05:50:57;;;;;;;1.67;1.57;;;-0.50;99.90;;;;;;4991505;28;20536;-80
2022/03/02 05:53:26;;;;;;;3.27;2.40;;;-0.50;99.90;;;;;;4974794;28;20217;-80
2022/03/02 05:55:51;;;;;;;1.30;1.20;;;-0.50;99.90;;;;;;4990257;28;20185;-80
2022/03/02 05:58:17;;;;;;;1.50;1.40;;;-0.40;99.90;;;;;;4982929;28;20786;-80
2022/03/02 06:03:56;;;;;;;2.17;2.07;;;-0.40;99.90;;;;;;4974184;28;20232;-81
2022/03/02 06:06:37;;;;;;;1.10;1.00;;;-0.40;99.90;;;;;;4985416;28;20454;-80
2022/03/02 06:09:04;;;;;;;4.43;4.13;;;-0.30;99.90;;;;;;4985801;28;20604;-80
2022/03/02 06:11:31;;;;;;;2.53;2.33;;;-0.20;99.90;;;;;;4970168;28;21298;-80
2022/03/02 06:13:57;;;;;;;1.40;1.30;;;-0.20;99.90;;;;;;4970237;28;20452;-81
2022/03/02 06:16:23;;;;;;;1.80;1.70;;;-0.20;99.90;;;;;;4970100;28;20440;-81
2022/03/02 06:18:49;;;;;;;7.93;1.67;;;-0.40;99.90;;;;;;4988776;28;20499;-80
2022/03/02 06:21:28;;;;;;;1.63;1.37;;;-0.40;99.90;;;;;;4991210;28;20436;-81
2022/03/02 06:23:59;;;;;;;4.17;3.87;;;-0.50;99.90;;;;;;4990414;28;20566;-81
2022/03/02 06:26:26;;;;;;;1.43;1.33;;;-0.60;99.90;;;;;;4990471;28;20466;-81
2022/03/02 06:28:52;;;;;;;1.30;1.20;;;-0.60;99.90;;;;;;4988839;28;20464;-82
2022/03/02 06:31:18;;;;;;;1.30;1.20;;;-0.50;99.90;;;;;;4990417;28;20452;-82
2022/03/02 06:33:45;;;;;;;1.30;1.20;;;-0.40;99.90;;;;;;4982582;28;20789;-81
2022/03/02 06:36:12;;;;;;;1.10;1.00;;;-0.40;99.90;;;;;;4977745;28;20449;-82
2022/03/02 06:38:38;;;;;;;1.27;1.17;;;-0.40;99.90;;;;;;4971134;28;20822;-82
2022/03/02 06:41:22;;;;;;;1.20;1.10;;;-0.40;99.90;;;;;;4987400;28;20444;-81
2022/03/02 06:44:18;;;;;;;3.03;2.83;;;-0.40;99.90;;;;;;4987395;28;20491;-81
2022/03/02 06:47:05;;;;;;;1.10;1.00;;;-0.30;99.90;;;;;;4985254;28;20943;-81
2022/03/02 06:49:53;;;;;;;1.53;1.43;;;-0.30;99.90;;;;;;4986884;28;20555;-81
2022/03/02 06:52:20;;;;;;;1.00;0.90;;;-0.30;99.90;;;;;;4983465;28;20437;-81
2022/03/02 06:54:49;;;;;;;3.03;2.87;;;-0.30;99.90;;;;;;4988448;28;20955;-81
2022/03/02 06:57:24;;;;;;;1.10;1.00;;;-0.20;99.90;;;;;;4970370;28;20468;-82
2022/03/02 06:59:55;;;;;;;3.47;3.30;;;-0.20;99.90;;;;;;4967774;28;20551;-81
2022/03/02 07:02:28;;;;;;;7.63;3.90;;;-0.10;99.90;;;;;;4970234;28;20491;-81
2022/03/02 07:04:56;;;;;;;2.50;1.83;;;0.00;99.90;;;;;;4988360;28;20460;-82
2022/03/02 07:07:21;;;;;;;1.80;1.70;;;0.10;99.90;;;;;;4988512;28;20547;-81
2022/03/02 07:09:47;;;;;;;2.17;2.07;;;0.10;99.90;;;;;;4990372;28;20929;-81
2022/03/02 07:12:13;;;;;;;2.90;2.70;;;0.20;99.90;;;;;;4990478;28;20213;-81
2022/03/02 07:14:40;;;;;;;5.30;3.00;;;0.40;99.90;;;;;;4985201;28;20188;-81
2022/03/02 07:17:06;;;;;;;1.20;1.10;;;0.60;99.90;;;;;;4986390;28;20285;-81
2022/03/02 07:19:31;;;;;;;1.33;1.23;;;0.60;99.90;;;;;;4988042;28;20547;-81
2022/03/02 07:22:03;;;;;;;1.10;1.00;;;0.70;99.90;;;;;;4969841;28;20656;-81
2022/03/02 07:24:35;;;;;;;2.53;2.43;;;0.80;99.90;;;;;;4990232;28;20933;-81
2022/03/02 07:27:01;;;;;;;1.33;1.23;;;0.80;99.90;;;;;;4982227;28;20532;-81
2022/03/02 07:29:28;;;;;;;3.20;2.37;;;0.80;99.90;;;;;;4968933;28;20630;-81
2022/03/02 07:31:56;;;;;;;1.07;0.97;;;0.90;99.90;;;;;;4986437;28;20510;-81
2022/03/02 07:34:24;;;;;;;1.50;1.40;;;0.90;99.90;;;;;;4965469;28;20443;-81
2022/03/02 07:36:51;;;;;;;2.03;1.93;;;1.00;99.90;;;;;;4981747;28;20444;-81
2022/03/02 07:39:17;;;;;;;1.83;1.73;;;1.10;99.90;;;;;;4987695;28;20947;-81
2022/03/02 07:41:43;;;;;;;1.40;1.30;;;1.30;99.90;;;;;;4964047;28;20437;-80
2022/03/02 07:44:10;;;;;;;2.13;2.03;;;1.50;99.90;;;;;;4970364;28;20189;-81
2022/03/02 07:46:36;;;;;;;2.47;2.00;;;1.70;99.90;;;;;;4983896;28;20555;-81
2022/03/02 07:49:03;;;;;;;1.00;0.90;;;1.80;99.90;;;;;;4987050;28;20472;-81
2022/03/02 07:51:32;;;;;;;2.90;2.13;;;1.80;99.90;;;;;;4985400;28;20967;-82
2022/03/02 07:54:01;;;;;;;1.90;1.73;;;2.00;99.90;;;;;;4984958;28;20448;-81
2022/03/02 07:56:29;;;;;;;1.23;1.13;;;2.20;99.90;;;;;;4979273;28;20512;-81
2022/03/02 07:59:00;;;;;;;1.53;1.43;;;2.40;99.90;;;;;;4987185;28;20435;-81
2022/03/02 08:01:27;;;;;;;4.50;4.23;;;2.50;99.90;;;;;;4989743;28;20853;-81
2022/03/02 08:03:55;;;;;;;1.53;1.43;;;2.70;99.90;;;;;;4992311;28;20472;-81
2022/03/02 08:06:21;;;;;;;7.83;2.40;;;2.90;99.90;;;;;;4992938;28;20815;-81
2022/03/02 08:08:50;;;;;;;1.40;1.30;;;3.10;99.90;;;;;;4978593;28;20835;-81
2022/03/02 08:11:17;;;;;;;1.00;0.90;;;3.20;99.90;;;;;;4990639;28;20436;-82
2022/03/02 08:13:42;;;;;;;1.40;1.30;;;3.40;99.90;;;;;;4989097;28;20500;-81
2022/03/02 08:16:08;;;;;;;4.10;3.90;;;3.60;99.90;;;;;;4989241;28;20432;-80
2022/03/02 08:18:33;;;;;;;4.37;4.13;;;3.70;99.90;;;;;;4991745;28;20859;-81
2022/03/02 08:20:59;;;;;;;1.50;1.40;;;3.90;99.90;;;;;;4988191;28;20173;-80
2022/03/02 08:23:34;;;;;;;3.33;2.93;;;3.90;99.90;;;;;;4988727;28;20288;-81
2022/03/02 08:26:01;;;;;;;0.97;0.87;;;4.10;99.90;;;;;;4981504;28;20505;-80
2022/03/02 08:28:29;;;;;;;1.77;1.30;;;4.20;99.90;;;;;;4988728;28;20535;-81
2022/03/02 08:30:55;;;;;;;4.07;3.77;;;4.20;99.90;;;;;;4968177;28;20452;-81
2022/03/02 08:33:27;;;;;;;4.33;4.03;;;4.30;99.90;;;;;;4990227;28;20874;-80
2022/03/02 08:35:53;;;;;;;11.77;2.90;;;4.30;99.90;;;;;;4989149;28;20649;-81
2022/03/02 08:38:19;;;;;;;3.07;2.87;;;4.50;99.90;;;;;;4992503;28;20804;-81
2022/03/02 08:40:45;;;;;;;7.50;3.70;;;4.80;99.90;;;;;;4990261;28;20456;-78
2022/03/02 08:43:13;;;;;;;2.03;1.93;;;4.80;99.90;;;;;;4991764;28;20185;-78
2022/03/02 08:45:38;;;;;;;3.40;2.40;;;5.10;99.90;;;;;;4989025;28;20255;-79
2022/03/02 08:48:05;;;;;;;2.07;1.40;;;5.00;99.90;;;;;;4991514;28;20883;-78
2022/03/02 08:50:31;;;;;;;1.97;1.87;;;5.10;99.90;;;;;;4995384;28;20739;-78
2022/03/02 08:52:58;;;;;;;0.80;0.70;;;5.20;99.90;;;;;;4993762;28;20432;-78
2022/03/02 08:55:28;;;;;;;1.90;1.80;;;5.10;99.90;;;;;;4993226;28;20940;-78
2022/03/02 08:57:54;;;;;;;1.00;0.90;;;5.40;99.90;;;;;;4990908;28;20454;-78
2022/03/02 09:00:20;;;;;;;6.97;3.07;;;5.60;99.90;;;;;;4992353;28;20440;-78
2022/03/02 09:02:47;;;;;;;5.27;1.70;;;5.80;99.90;;;;;;4990931;28;20476;-79
2022/03/02 09:05:13;;;;;;;2.33;2.20;;;5.80;99.90;;;;;;4983364;28;20265;-79
2022/03/02 09:07:38;;;;;;;1.77;1.30;;;5.60;99.90;;;;;;4991302;28;21031;-78
2022/03/02 09:10:05;;;;;;;3.00;1.60;;;5.60;99.90;;;;;;4987685;28;20495;-79
2022/03/02 09:12:31;;;;;;;3.90;2.47;;;5.80;99.90;;;;;;4985126;28;20216;-78
2022/03/02 09:14:58;;;;;;;1.53;1.43;;;5.90;99.90;;;;;;4991662;28;20538;-78
2022/03/02 09:17:26;;;;;;;6.30;2.60;;;5.90;99.90;;;;;;4972607;28;20916;-79
2022/03/02 09:19:54;;;;;;;1.13;0.90;;;6.00;99.90;;;;;;4992308;28;20932;-78
2022/03/02 09:22:22;;;;;;;1.73;1.60;;;5.90;99.90;;;;;;4990499;28;20444;-78
2022/03/02 09:24:48;;;;;;;2.40;2.30;;;6.00;99.90;;;;;;5003905;28;20523;-78
2022/03/02 09:27:15;;;;;;;1.27;1.17;;;5.90;99.90;;;;;;4995051;28;20542;-78
2022/03/02 09:29:45;;;;;;;2.67;1.93;;;6.20;99.90;;;;;;4992836;28;20264;-78
2022/03/02 09:32:12;;;;;;;4.07;3.73;;;6.00;99.90;;;;;;4990990;28;20448;-78
2022/03/02 09:34:42;;;;;;;1.13;1.03;;;6.30;99.90;;;;;;4973713;28;20436;-78
2022/03/02 09:37:11;;;;;;;2.40;1.40;;;6.10;99.90;;;;;;4987745;28;20420;-78
2022/03/02 09:39:38;;;;;;;4.70;3.67;;;6.30;99.90;;;;;;4993250;28;20534;-79
2022/03/02 09:42:05;;;;;;;4.40;1.97;;;6.20;99.90;;;;;;4975219;28;20444;-78
2022/03/02 09:44:46;;;;;;;2.10;2.00;;;6.00;99.90;;;;;;4982478;28;20452;-78
2022/03/02 09:47:20;;;;;;;1.43;1.33;;;5.90;99.90;;;;;;4988039;28;20436;-78
2022/03/02 09:49:55;;;;;;;1.73;1.63;;;5.90;99.90;;;;;;4990305;28;20576;-78
2022/03/02 09:52:21;;;;;;;1.83;1.73;;;6.10;99.90;;;;;;4991138;28;20530;-79
2022/03/02 09:54:52;;;;;;;7.03;3.43;;;6.60;99.90;;;;;;4986882;28;21014;-79
2022/03/02 09:57:20;;;;;;;9.73;1.77;;;7.40;99.90;;;;;;4987877;28;20967;-78
2022/03/02 09:59:55;;;;;;;4.43;4.13;;;7.90;99.90;;;;;;4983726;28;20456;-78
2022/03/02 10:02:37;;;;;;;7.50;2.53;;;8.30;99.90;;;;;;4971610;28;20934;-78
2022/03/02 10:05:08;;;;;;;10.80;2.97;;;7.80;99.90;;;;;;4983921;28;21015;-78
2022/03/02 10:07:36;;;;;;;3.00;2.10;;;7.40;99.90;;;;;;4971535;28;20459;-78
2022/03/02 10:10:07;;;;;;;1.37;1.17;;;7.90;99.90;;;;;;4978283;28;20485;-78
2022/03/02 10:12:36;;;;;;;1.30;1.20;;;8.20;99.90;;;;;;4970487;28;20568;-78
2022/03/02 10:15:04;;;;;;;2.23;1.37;;;8.00;99.90;;;;;;4986857;28;20799;-78
2022/03/02 10:17:35;;;;;;;2.13;2.03;;;7.60;99.90;;;;;;4987263;28;20494;-79
2022/03/02 10:20:08;;;;;;;2.47;2.20;;;7.50;99.90;;;;;;4986448;28;20446;-78
2022/03/02 10:22:40;;;;;;;3.53;2.70;;;7.00;99.90;;;;;;4987999;28;20444;-78
2022/03/02 10:25:08;;;;;;;0.93;0.83;;;6.80;99.90;;;;;;4992262;28;20451;-79
2022/03/02 10:28:00;;;;;;;0.80;0.70;;;6.90;99.90;;;;;;4966840;28;20452;-79
2022/03/02 10:30:32;;;;;;;1.63;1.53;;;7.10;99.90;;;;;;4985104;28;20496;-78
2022/03/02 10:33:12;;;;;;;0.80;0.60;;;7.00;99.90;;;;;;4985275;28;20849;-78
2022/03/02 10:35:47;;;;;;;1.73;1.40;;;7.00;99.90;;;;;;4988698;28;20436;-78
2022/03/02 10:38:16;;;;;;;2.10;1.93;;;7.10;99.90;;;;;;4967610;28;20458;-78
2022/03/02 10:40:43;;;;;;;1.00;0.80;;;7.60;99.90;;;;;;4988646;28;20455;-78
2022/03/02 10:43:18;;;;;;;2.40;2.30;;;7.30;99.90;;;;;;4972485;28;20520;-78
2022/03/02 10:45:47;;;;;;;3.53;3.23;;;7.00;99.90;;;;;;4984997;28;20428;-78
2022/03/02 10:48:46;;;;;;;0.80;0.60;;;7.00;99.90;;;;;;4971177;28;20459;-79
2022/03/02 10:51:13;;;;;;;2.60;1.07;;;7.30;99.90;;;;;;4960439;28;20448;-78
2022/03/02 10:53:40;;;;;;;2.40;1.53;;;7.80;99.90;;;;;;4982227;28;20449;-78
2022/03/02 10:56:08;;;;;;;3.33;2.30;;;8.60;99.90;;;;;;4983375;28;20477;-78
2022/03/02 10:58:35;;;;;;;0.90;0.60;;;9.40;99.90;;;;;;4971066;28;20444;-78
2022/03/02 11:01:01;;;;;;;7.73;1.53;;;10.00;99.90;;;;;;4983557;28;20467;-78
2022/03/02 11:03:33;;;;;;;3.43;3.13;;;10.10;99.90;;;;;;4983183;28;20468;-77
2022/03/02 11:06:01;;;;;;;1.57;1.47;;;10.50;99.90;;;;;;4988316;28;20444;-76
2022/03/02 11:08:28;;;;;;;4.63;1.63;;;9.60;99.90;;;;;;4977782;28;20606;-78
2022/03/02 11:10:54;;;;;;;3.17;2.97;;;8.70;99.90;;;;;;4981358;28;20463;-78
2022/03/02 11:13:23;;;;;;;3.10;2.90;;;8.40;99.90;;;;;;4983976;28;20459;-78
2022/03/02 11:15:54;;;;;;;1.43;1.33;;;8.10;99.90;;;;;;4978979;28;20457;-78
2022/03/02 11:18:35;;;;;;;1.00;0.90;;;8.10;99.90;;;;;;4982393;28;20440;-78
2022/03/02 11:21:06;;;;;;;1.77;1.13;;;8.00;99.90;;;;;;4989117;28;20933;-79
2022/03/02 11:23:43;;;;;;;4.67;1.40;;;8.10;99.90;;;;;;4988919;28;20448;-78
2022/03/02 11:26:16;;;;;;;1.43;1.33;;;9.40;99.90;;;;;;4981561;28;20455;-79
2022/03/02 11:28:48;;;;;;;1.50;1.20;;;10.40;99.90;;;;;;4985689;28;20474;-79
2022/03/02 11:31:31;;;;;;;6.00;1.77;;;10.90;99.90;;;;;;4963489;28;20445;-79
2022/03/02 11:34:27;;;;;;;3.83;2.73;;;11.30;99.90;;;;;;4983587;28;20804;-80
2022/03/02 11:36:59;;;;;;;2.07;1.70;;;11.50;99.90;;;;;;4964347;28;20475;-80
2022/03/02 11:39:27;;;;;;;2.10;2.00;;;11.10;99.90;;;;;;4988935;28;21028;-79
2022/03/02 11:41:55;;;;;;;2.40;2.10;;;11.30;99.90;;;;;;4987542;28;20452;-79
2022/03/02 11:44:32;;;;;;;1.00;0.90;;;11.60;99.90;;;;;;4988682;28;20559;-79
2022/03/02 11:46:58;;;;;;;4.73;3.70;;;11.40;99.90;;;;;;4994731;28;20590;-79
2022/03/02 11:49:49;;;;;;;2.40;2.20;;;11.30;99.90;;;;;;4989367;28;20502;-80
2022/03/02 11:52:22;;;;;;;2.17;2.00;;;11.60;99.90;;;;;;4981145;28;20530;-79
2022/03/02 11:54:49;;;;;;;10.40;2.77;;;12.00;99.90;;;;;;4974124;28;20464;-79
2022/03/02 11:57:16;;;;;;;1.30;1.20;;;12.30;99.90;;;;;;4993336;28;20455;-79
2022/03/02 11:59:43;;;;;;;7.33;2.03;;;12.50;99.90;;;;;;4991435;28;20574;-79
2022/03/02 12:02:14;;;;;;;3.47;1.80;;;12.40;99.90;;;;;;4970419;28;20500;-80
2022/03/02 12:04:40;;;;;;;2.33;1.73;;;12.60;99.90;;;;;;4973262;28;20498;-79
2022/03/02 12:07:08;;;;;;;1.47;1.27;;;12.60;99.90;;;;;;4989670;28;20567;-79
2022/03/02 12:09:35;;;;;;;1.50;0.93;;;12.90;99.90;;;;;;4987252;28;20751;-79
2022/03/02 12:12:16;;;;;;;1.97;1.87;;;12.60;99.90;;;;;;4973868;28;20495;-80
2022/03/02 12:15:01;;;;;;;1.47;1.33;;;13.10;99.90;;;;;;4986525;28;20439;-79
2022/03/02 12:17:33;;;;;;;1.43;1.30;;;12.30;99.90;;;;;;4986256;28;20455;-80
2022/03/02 12:20:13;;;;;;;9.40;2.77;;;12.60;99.90;;;;;;4989079;28;20810;-79
2022/03/02 12:22:48;;;;;;;2.07;1.87;;;12.90;99.90;;;;;;4990999;28;20447;-79
2022/03/02 12:25:17;;;;;;;3.87;1.67;;;13.40;99.90;;;;;;4973883;28;20444;-80
2022/03/02 12:27:54;;;;;;;2.00;1.57;;;12.80;99.90;;;;;;4984859;28;20538;-79
2022/03/02 12:30:20;;;;;;;6.13;2.00;;;13.00;99.90;;;;;;4991299;28;20507;-79
2022/03/02 12:32:45;;;;;;;2.90;2.60;;;13.10;99.90;;;;;;4994310;28;20890;-79
2022/03/02 12:35:13;;;;;;;2.23;1.73;;;13.20;99.90;;;;;;4990188;28;20724;-79
2022/03/02 12:37:40;;;;;;;3.10;1.23;;;13.30;99.90;;;;;;4989934;28;20645;-79
2022/03/02 12:40:09;;;;;;;3.27;1.50;;;13.50;99.90;;;;;;4995905;28;20443;-79
2022/03/02 12:42:37;;;;;;;3.60;2.10;;;13.30;99.90;;;;;;4984140;28;20997;-81
2022/03/02 12:45:03;;;;;;;4.30;2.10;;;13.90;99.90;;;;;;4983977;28;20978;-78
2022/03/02 12:47:30;;;;;;;3.00;2.20;;;13.70;99.90;;;;;;4974222;28;20448;-80
2022/03/02 12:49:57;;;;;;;2.37;1.23;;;13.60;99.90;;;;;;4982249;28;20224;-80
2022/03/02 12:52:25;;;;;;;4.07;2.93;;;13.30;99.90;;;;;;4971473;28;20962;-80
2022/03/02 12:54:52;;;;;;;1.33;0.83;;;13.50;99.90;;;;;;4974570;28;20448;-79
2022/03/02 12:57:21;;;;;;;3.53;2.80;;;13.60;99.90;;;;;;4996563;28;20525;-79
2022/03/02 12:59:48;;;;;;;2.40;1.23;;;13.90;99.90;;;;;;4988960;28;20444;-79
2022/03/02 13:02:20;;;;;;;1.63;1.30;;;14.00;99.90;;;;;;4992615;28;20983;-79